createdAt,value
2018-02-07T00:01:29.433Z,66.61
2018-02-07T00:03:56.991Z,67.32
2018-02-07T00:06:24.594Z,67.46
2018-02-07T00:08:52.169Z,68.37
2018-02-07T00:11:19.840Z,68.16
2018-02-07T00:13:47.412Z,68.44
2018-02-07T00:16:14.973Z,67.55
2018-02-07T00:18:42.546Z,67.54
2018-02-07T00:21:10.162Z,67.25
2018-02-07T00:23:37.726Z,67.86
2018-02-07T00:26:05.347Z,67.51
2018-02-07T00:28:32.958Z,67.91
2018-02-07T00:31:00.579Z,67.73
2018-02-07T00:33:28.137Z,68.40
2018-02-07T00:35:55.709Z,68.85
2018-02-07T00:38:23.326Z,70.24
2018-02-07T00:40:50.952Z,69.15
2018-02-07T00:43:18.520Z,69.67
2018-02-07T00:45:46.146Z,70.48
2018-02-07T00:48:13.713Z,70.87
2018-02-07T00:50:41.287Z,71.37
2018-02-07T00:53:08.862Z,71.61
2018-02-07T00:55:36.465Z,72.14
2018-02-07T00:58:04.046Z,71.95
2018-02-07T01:00:31.609Z,72.20
2018-02-07T01:02:59.293Z,71.95
2018-02-07T01:05:26.863Z,72.34
2018-02-07T01:07:54.406Z,73.39
2018-02-07T01:10:21.974Z,74.00
2018-02-07T01:12:49.598Z,74.60
2018-02-07T01:15:17.184Z,74.82
2018-02-07T01:17:44.764Z,75.00
2018-02-07T01:20:12.382Z,74.91
2018-02-07T01:22:39.958Z,74.39
2018-02-07T01:25:07.525Z,72.20
2018-02-07T01:27:35.094Z,73.17
2018-02-07T01:30:02.701Z,74.52
2018-02-07T01:32:30.330Z,74.66
2018-02-07T01:34:57.898Z,73.25
2018-02-07T01:37:25.530Z,73.80
2018-02-07T01:39:53.151Z,74.36
2018-02-07T01:42:20.774Z,74.58
2018-02-07T01:44:48.345Z,75.16
2018-02-07T01:47:15.909Z,74.89
2018-02-07T01:49:43.539Z,74.52
2018-02-07T01:52:11.101Z,74.42
2018-02-07T01:54:38.731Z,74.91
2018-02-07T01:57:06.375Z,74.96
2018-02-07T01:59:34.042Z,75.21
2018-02-07T02:02:01.687Z,75.37
2018-02-07T02:04:29.254Z,75.52
2018-02-07T02:06:56.835Z,75.64
2018-02-07T02:09:24.401Z,75.89
2018-02-07T02:11:52.017Z,75.83
2018-02-07T02:14:19.644Z,75.80
2018-02-07T02:16:47.266Z,75.82
2018-02-07T02:19:14.874Z,75.53
2018-02-07T02:21:42.499Z,75.69
2018-02-07T02:24:10.134Z,75.54
2018-02-07T02:26:37.767Z,75.26
2018-02-07T02:29:05.405Z,75.59
2018-02-07T02:31:32.974Z,75.53
2018-02-07T02:34:00.598Z,75.83
2018-02-07T02:36:41.047Z,76.22
2018-02-07T02:39:08.632Z,76.75
2018-02-07T02:41:36.214Z,77.35
2018-02-07T02:44:03.780Z,77.41
2018-02-07T02:46:31.404Z,77.64
2018-02-07T02:48:59.001Z,77.69
2018-02-07T02:51:26.631Z,77.56
2018-02-07T02:53:54.306Z,77.85
2018-02-07T02:56:21.943Z,77.64
2018-02-07T02:58:49.631Z,77.79
2018-02-07T03:01:17.202Z,77.60
2018-02-07T03:03:44.770Z,77.54
2018-02-07T03:06:12.361Z,77.70
2018-02-07T03:08:39.921Z,77.44
2018-02-07T03:11:07.539Z,77.05
2018-02-07T03:13:35.174Z,77.33
2018-02-07T03:16:02.820Z,77.53
2018-02-07T03:18:30.402Z,77.57
2018-02-07T03:20:58.033Z,77.51
2018-02-07T03:23:25.716Z,77.70
2018-02-07T03:25:53.285Z,77.87
2018-02-07T03:28:20.857Z,78.35
2018-02-07T03:30:48.483Z,78.60
2018-02-07T03:33:16.049Z,78.90
2018-02-07T03:35:43.617Z,78.78
2018-02-07T03:38:11.317Z,78.82
2018-02-07T03:40:38.944Z,78.94
2018-02-07T03:43:06.514Z,79.01
2018-02-07T03:45:34.086Z,79.16
2018-02-07T03:48:01.646Z,79.55
2018-02-07T03:50:29.227Z,79.75
2018-02-07T03:52:56.810Z,80.58
2018-02-07T03:55:24.373Z,81.46
2018-02-07T03:57:51.999Z,81.64
2018-02-07T04:00:19.611Z,81.70
2018-02-07T04:02:47.298Z,81.28
2018-02-07T04:05:14.867Z,81.16
2018-02-07T04:07:42.495Z,81.74
2018-02-07T04:10:10.130Z,82.02
2018-02-07T04:12:37.702Z,82.35
2018-02-07T04:15:05.325Z,82.50
2018-02-07T04:17:32.976Z,82.67
2018-02-07T04:20:00.612Z,82.82
2018-02-07T04:22:28.252Z,83.17
2018-02-07T04:24:55.918Z,82.92
2018-02-07T04:27:23.499Z,82.54
2018-02-07T04:29:51.065Z,82.66
2018-02-07T04:32:18.681Z,82.73
2018-02-07T04:34:46.262Z,82.90
2018-02-07T04:37:13.905Z,82.85
2018-02-07T04:39:41.495Z,82.85
2018-02-07T04:42:09.066Z,83.45
2018-02-07T04:44:36.644Z,83.41
2018-02-07T04:47:04.211Z,83.21
2018-02-07T04:49:31.871Z,83.11
2018-02-07T04:51:59.426Z,83.07
2018-02-07T04:54:26.999Z,82.85
2018-02-07T04:56:54.642Z,82.83
2018-02-07T04:59:22.210Z,83.03
2018-02-07T05:01:49.795Z,83.13
2018-02-07T05:04:17.375Z,83.36
2018-02-07T05:06:45.057Z,83.50
2018-02-07T05:09:12.626Z,83.14
2018-02-07T05:11:40.200Z,83.14
2018-02-07T05:14:07.779Z,83.05
2018-02-07T05:16:35.358Z,82.93
2018-02-07T05:19:02.930Z,82.82
2018-02-07T05:21:30.493Z,82.80
2018-02-07T05:23:58.113Z,82.76
2018-02-07T05:26:25.735Z,82.43
2018-02-07T05:28:53.362Z,82.30
2018-02-07T05:31:20.986Z,82.31
2018-02-07T05:33:48.548Z,81.96
2018-02-07T05:36:16.175Z,81.45
2018-02-07T05:38:43.799Z,80.99
2018-02-07T05:41:11.425Z,81.00
2018-02-07T05:43:39.000Z,80.74
2018-02-07T05:46:06.556Z,80.71
2018-02-07T05:48:34.126Z,80.36
2018-02-07T05:51:01.747Z,80.26
2018-02-07T05:53:29.314Z,79.89
2018-02-07T05:55:56.886Z,79.45
2018-02-07T05:58:24.563Z,79.17
2018-02-07T06:00:52.177Z,78.87
2018-02-07T06:03:19.801Z,78.71
2018-02-07T06:05:47.374Z,78.40
2018-02-07T06:08:14.949Z,77.58
2018-02-07T06:10:42.530Z,77.20
2018-02-07T06:13:10.172Z,76.93
2018-02-07T06:15:37.854Z,76.56
2018-02-07T06:18:05.441Z,75.77
2018-02-07T06:20:33.014Z,75.35
2018-02-07T06:23:00.571Z,74.73
2018-02-07T06:25:28.200Z,74.16
2018-02-07T06:27:55.774Z,73.61
2018-02-07T06:30:23.389Z,73.48
2018-02-07T06:32:51.080Z,72.68
2018-02-07T06:35:18.712Z,72.53
2018-02-07T06:37:46.342Z,72.25
2018-02-07T06:40:13.915Z,72.10
2018-02-07T06:42:41.477Z,71.05
2018-02-07T06:45:09.069Z,70.56
2018-02-07T06:47:36.643Z,69.60
2018-02-07T06:50:04.265Z,69.26
2018-02-07T06:52:31.902Z,69.24
2018-02-07T06:54:59.516Z,69.01
2018-02-07T06:57:27.094Z,68.88
2018-02-07T06:59:54.665Z,68.82
2018-02-07T07:02:22.306Z,68.65
2018-02-07T07:04:49.954Z,68.37
2018-02-07T07:07:17.578Z,67.88
2018-02-07T07:09:45.214Z,67.55
2018-02-07T07:12:12.823Z,67.37
2018-02-07T07:14:40.398Z,66.54
2018-02-07T07:17:08.026Z,66.72
2018-02-07T07:19:35.669Z,66.98
2018-02-07T07:22:03.233Z,65.88
2018-02-07T07:24:30.858Z,66.46
2018-02-07T07:26:58.487Z,65.71
2018-02-07T07:29:26.053Z,65.16
2018-02-07T07:31:53.643Z,64.33
2018-02-07T07:34:21.219Z,64.06
2018-02-07T07:36:48.866Z,63.82
2018-02-07T07:39:16.447Z,63.59
2018-02-07T07:41:44.073Z,63.22
2018-02-07T07:44:11.712Z,62.55
2018-02-07T07:46:39.357Z,62.00
2018-02-07T07:49:06.948Z,62.64
2018-02-07T07:51:34.518Z,62.31
2018-02-07T07:54:02.094Z,62.06
2018-02-07T07:56:29.722Z,61.99
2018-02-07T07:58:57.345Z,62.62
2018-02-07T08:01:24.929Z,61.51
2018-02-07T08:03:52.554Z,62.48
2018-02-07T08:06:20.130Z,61.99
2018-02-07T08:08:47.758Z,61.72
2018-02-07T08:11:15.398Z,61.86
2018-02-07T08:13:42.962Z,62.05
2018-02-07T08:16:10.580Z,62.59
2018-02-07T08:18:38.154Z,61.58
2018-02-07T08:21:05.788Z,60.69
2018-02-07T08:23:33.367Z,61.27
2018-02-07T08:26:00.946Z,59.58
2018-02-07T08:28:28.582Z,58.11
2018-02-07T08:30:56.215Z,56.76
2018-02-07T08:33:23.830Z,55.44
2018-02-07T08:35:51.386Z,54.13
2018-02-07T08:38:18.957Z,54.58
2018-02-07T08:40:46.548Z,55.34
2018-02-07T08:43:14.123Z,54.35
2018-02-07T08:45:41.694Z,53.87
2018-02-07T08:48:09.358Z,53.17
2018-02-07T08:50:36.982Z,51.66
2018-02-07T08:53:04.565Z,52.19
2018-02-07T08:55:32.220Z,52.56
2018-02-07T08:57:59.806Z,51.36
2018-02-07T09:00:27.365Z,50.27
2018-02-07T09:02:54.950Z,50.91
2018-02-07T09:05:22.528Z,49.17
2018-02-07T09:07:50.206Z,48.28
2018-02-07T09:10:17.846Z,49.66
2018-02-07T09:12:45.415Z,49.27
2018-02-07T09:15:12.991Z,47.83
2018-02-07T09:17:40.654Z,48.75
2018-02-07T09:20:08.369Z,49.37
2018-02-07T09:22:36.028Z,49.90
2018-02-07T09:25:03.602Z,50.79
2018-02-07T09:27:31.257Z,50.44
2018-02-07T09:29:58.908Z,51.44
2018-02-07T09:32:26.526Z,52.41
2018-02-07T09:34:54.106Z,53.56
2018-02-07T09:37:21.687Z,52.53
2018-02-07T09:39:49.285Z,50.96
2018-02-07T09:42:16.854Z,49.59
2018-02-07T09:44:44.472Z,48.07
2018-02-07T09:47:12.107Z,49.67
2018-02-07T09:49:39.804Z,48.84
2018-02-07T09:52:07.380Z,48.94
2018-02-07T09:54:34.960Z,48.89
2018-02-07T09:57:02.604Z,48.79
2018-02-07T09:59:30.234Z,47.85
2018-02-07T10:01:57.855Z,49.29
2018-02-07T10:04:25.481Z,48.03
2018-02-07T10:06:53.071Z,45.82
2018-02-07T10:09:20.645Z,44.51
2018-02-07T10:11:48.231Z,45.11
2018-02-07T10:14:15.865Z,45.54
2018-02-07T10:16:43.508Z,44.67
2018-02-07T10:19:11.139Z,44.44
2018-02-07T10:21:38.715Z,43.79
2018-02-07T10:24:06.328Z,44.54
2018-02-07T10:26:33.891Z,44.14
2018-02-07T10:29:01.454Z,43.24
2018-02-07T10:31:29.168Z,42.77
2018-02-07T10:33:56.802Z,41.36
2018-02-07T10:36:24.361Z,40.80
2018-02-07T10:38:51.977Z,42.02
2018-02-07T10:41:19.606Z,42.72
2018-02-07T10:43:47.259Z,44.23
2018-02-07T10:46:14.830Z,45.56
2018-02-07T10:48:42.485Z,46.22
2018-02-07T10:51:10.075Z,46.11
2018-02-07T10:53:37.646Z,46.73
2018-02-07T10:56:05.213Z,46.91
2018-02-07T10:58:32.857Z,46.84
2018-02-07T11:01:00.498Z,46.88
2018-02-07T11:03:28.094Z,47.15
2018-02-07T11:05:55.660Z,48.01
2018-02-07T11:08:23.247Z,48.47
2018-02-07T11:10:50.814Z,48.96
2018-02-07T11:13:18.501Z,49.00
2018-02-07T11:15:46.137Z,49.44
2018-02-07T11:18:13.687Z,49.81
2018-02-07T11:20:41.313Z,49.94
2018-02-07T11:23:08.889Z,49.91
2018-02-07T11:25:36.463Z,49.96
2018-02-07T11:28:04.085Z,49.73
2018-02-07T11:30:31.795Z,50.70
2018-02-07T11:32:59.419Z,50.39
2018-02-07T11:35:27.005Z,50.83
2018-02-07T11:37:54.578Z,51.23
2018-02-07T11:40:22.123Z,50.90
2018-02-07T11:42:49.700Z,51.00
2018-02-07T11:45:17.284Z,50.97
2018-02-07T11:47:51.642Z,51.17
2018-02-07T11:50:19.215Z,51.08
2018-02-07T11:52:46.805Z,51.55
2018-02-07T11:55:14.405Z,51.39
2018-02-07T11:57:42.051Z,51.41
2018-02-07T12:00:09.736Z,50.96
2018-02-07T12:02:37.366Z,50.28
2018-02-07T12:05:05.050Z,49.69
2018-02-07T12:07:32.617Z,49.08
2018-02-07T12:10:00.244Z,48.88
2018-02-07T12:12:27.974Z,48.64
2018-02-07T12:14:55.520Z,48.67
2018-02-07T12:17:23.111Z,48.13
2018-02-07T12:19:50.738Z,48.08
2018-02-07T12:22:18.433Z,47.41
2018-02-07T12:24:45.999Z,47.35
2018-02-07T12:27:13.552Z,46.38
2018-02-07T12:29:41.177Z,45.86
2018-02-07T12:32:08.750Z,45.97
2018-02-07T12:34:36.339Z,46.31
2018-02-07T12:37:03.951Z,46.45
2018-02-07T12:39:31.727Z,46.68
2018-02-07T12:41:59.354Z,47.26
2018-02-07T12:44:26.926Z,47.33
2018-02-07T12:46:54.562Z,47.47
2018-02-07T12:49:22.138Z,47.69
2018-02-07T12:51:49.713Z,47.00
2018-02-07T12:54:17.288Z,47.22
2018-02-07T12:56:44.973Z,52.93
2018-02-07T12:59:12.598Z,55.79
2018-02-07T13:01:40.170Z,58.34
2018-02-07T13:04:07.750Z,59.31
2018-02-07T13:06:36.224Z,61.52
2018-02-07T13:09:03.904Z,62.99
2018-02-07T13:11:31.601Z,63.63
2018-02-07T13:13:59.240Z,64.13
2018-02-07T13:16:26.801Z,65.29
2018-02-07T13:18:54.450Z,66.37
2018-02-07T13:21:22.027Z,66.73
2018-02-07T13:23:49.589Z,66.96
2018-02-07T13:26:17.147Z,66.71
2018-02-07T13:28:44.778Z,66.87
2018-02-07T13:31:12.538Z,67.63
2018-02-07T13:33:40.161Z,68.05
2018-02-07T13:36:07.741Z,68.80
2018-02-07T13:38:35.384Z,69.78
2018-02-07T13:41:02.956Z,69.87
2018-02-07T13:43:30.538Z,70.16
2018-02-07T13:45:58.150Z,70.45
2018-02-07T13:48:25.774Z,70.18
2018-02-07T13:50:53.351Z,69.71
2018-02-07T13:53:20.983Z,69.80
2018-02-07T13:55:48.561Z,69.77
2018-02-07T13:58:16.201Z,69.69
2018-02-07T14:00:49.389Z,69.86
2018-02-07T14:03:17.031Z,69.84
2018-02-07T14:05:44.664Z,69.66
2018-02-07T14:08:12.302Z,69.49
2018-02-07T14:10:39.931Z,69.51
2018-02-07T14:13:07.577Z,69.07
2018-02-07T14:15:35.168Z,69.15
2018-02-07T14:18:02.744Z,69.95
2018-02-07T14:20:30.310Z,69.83
2018-02-07T14:22:57.930Z,70.16
2018-02-07T14:25:25.499Z,69.98
2018-02-07T14:27:53.055Z,70.31
2018-02-07T14:30:20.648Z,70.67
2018-02-07T14:32:48.213Z,70.21
2018-02-07T14:35:15.862Z,70.81
2018-02-07T14:37:43.426Z,70.61
2018-02-07T14:40:11.112Z,71.04
2018-02-07T14:42:38.692Z,71.41
2018-02-07T14:45:06.276Z,71.63
2018-02-07T14:47:33.879Z,71.97
2018-02-07T14:50:01.451Z,71.95
2018-02-07T14:52:29.036Z,71.99
2018-02-07T14:54:56.662Z,71.78
2018-02-07T14:57:24.282Z,71.75
2018-02-07T14:59:51.906Z,71.61
2018-02-07T15:02:19.470Z,71.30
2018-02-07T15:04:47.051Z,71.21
2018-02-07T15:07:14.694Z,71.40
2018-02-07T15:09:42.340Z,71.67
2018-02-07T15:12:09.906Z,71.53
2018-02-07T15:14:37.533Z,70.12
2018-02-07T15:17:05.111Z,68.95
2018-02-07T15:19:32.757Z,69.08
2018-02-07T15:22:00.339Z,69.81
2018-02-07T15:24:27.976Z,69.40
2018-02-07T15:26:55.589Z,69.44
2018-02-07T15:29:23.187Z,69.57
2018-02-07T15:31:50.802Z,69.89
2018-02-07T15:34:18.369Z,69.50
2018-02-07T15:36:45.990Z,70.12
2018-02-07T15:39:13.561Z,71.12
2018-02-07T15:41:41.142Z,71.55
2018-02-07T15:44:08.936Z,71.83
2018-02-07T15:46:36.570Z,72.73
2018-02-07T15:49:04.289Z,73.37
2018-02-07T15:51:31.857Z,74.38
2018-02-07T15:53:59.479Z,75.22
2018-02-07T15:56:27.031Z,75.73
2018-02-07T15:58:54.602Z,76.43
2018-02-07T16:01:22.252Z,76.89
2018-02-07T16:03:49.839Z,77.40
2018-02-07T16:06:18.352Z,77.56
2018-02-07T16:08:45.917Z,77.87
2018-02-07T16:11:13.486Z,78.22
2018-02-07T16:13:41.067Z,77.65
2018-02-07T16:16:08.679Z,77.07
2018-02-07T16:18:36.321Z,77.21
2018-02-07T16:21:03.980Z,77.71
2018-02-07T16:23:31.607Z,76.92
2018-02-07T16:25:59.244Z,76.62
2018-02-07T16:28:26.821Z,75.82
2018-02-07T16:30:54.420Z,75.30
2018-02-07T16:33:21.991Z,75.63
2018-02-07T16:35:49.580Z,75.82
2018-02-07T16:38:17.319Z,75.83
2018-02-07T16:40:44.929Z,75.75
2018-02-07T16:43:12.489Z,75.85
2018-02-07T16:45:40.229Z,75.98
2018-02-07T16:48:07.810Z,75.60
2018-02-07T16:50:35.378Z,75.14
2018-02-07T16:53:03.014Z,74.67
2018-02-07T16:55:30.638Z,74.08
2018-02-07T16:57:58.277Z,73.24
2018-02-07T17:00:25.905Z,74.39
2018-02-07T17:02:53.467Z,75.08
2018-02-07T17:05:21.038Z,76.20
2018-02-07T17:07:48.663Z,76.87
2018-02-07T17:10:16.294Z,77.25
2018-02-07T17:12:43.865Z,77.51
2018-02-07T17:15:11.539Z,77.47
2018-02-07T17:17:39.105Z,77.85
2018-02-07T17:20:06.678Z,78.44
2018-02-07T17:22:34.322Z,78.72
2018-02-07T17:25:01.948Z,78.72
2018-02-07T17:27:29.563Z,78.83
2018-02-07T17:29:57.615Z,78.59
2018-02-07T17:32:25.189Z,78.22
2018-02-07T17:34:52.815Z,78.21
2018-02-07T17:37:20.389Z,78.26
2018-02-07T17:39:48.014Z,78.17
2018-02-07T17:42:16.334Z,78.03
2018-02-07T17:44:43.990Z,77.77
2018-02-07T17:47:11.614Z,77.47
2018-02-07T17:49:39.181Z,77.02
2018-02-07T17:52:06.799Z,76.53
2018-02-07T17:54:34.376Z,76.12
2018-02-07T17:57:01.951Z,75.33
2018-02-07T17:59:29.582Z,75.30
2018-02-07T18:01:57.203Z,75.95
2018-02-07T18:04:24.854Z,75.77
2018-02-07T18:06:52.483Z,76.19
2018-02-07T18:09:20.127Z,76.36
2018-02-07T18:11:47.702Z,76.49
2018-02-07T18:14:15.346Z,77.04
2018-02-07T18:16:42.979Z,77.42
2018-02-07T18:19:10.544Z,78.26
2018-02-07T18:21:38.162Z,79.06
2018-02-07T18:24:05.722Z,79.29
2018-02-07T18:26:33.289Z,79.53
2018-02-07T18:29:00.889Z,80.05
2018-02-07T18:31:28.533Z,80.43
2018-02-07T18:33:56.119Z,80.83
2018-02-07T18:36:23.660Z,80.94
2018-02-07T18:38:51.268Z,81.27
2018-02-07T18:41:18.845Z,81.20
2018-02-07T18:43:46.395Z,81.25
2018-02-07T18:46:14.038Z,81.42
2018-02-07T18:48:41.593Z,81.25
2018-02-07T18:51:09.167Z,81.06
2018-02-07T18:53:36.730Z,80.70
2018-02-07T18:56:04.357Z,80.39
2018-02-07T18:58:31.932Z,80.48
2018-02-07T19:00:59.505Z,80.53
2018-02-07T19:03:27.120Z,80.48
2018-02-07T19:05:54.691Z,80.38
2018-02-07T19:08:22.264Z,80.33
2018-02-07T19:10:49.867Z,80.25
2018-02-07T19:13:17.483Z,80.24
2018-02-07T19:15:45.055Z,80.15
2018-02-07T19:18:12.679Z,79.65
2018-02-07T19:20:40.261Z,79.50
2018-02-07T19:23:07.831Z,79.11
2018-02-07T19:25:35.418Z,78.60
2018-02-07T19:28:02.987Z,78.36
2018-02-07T19:30:30.679Z,78.54
2018-02-07T19:32:58.303Z,78.68
2018-02-07T19:35:25.894Z,78.04
2018-02-07T19:37:53.576Z,77.83
2018-02-07T19:40:21.206Z,77.97
2018-02-07T19:42:48.819Z,78.04
2018-02-07T19:45:16.372Z,78.21
2018-02-07T19:47:44.045Z,78.31
2018-02-07T19:50:11.729Z,78.11
2018-02-07T19:52:39.306Z,78.32
2018-02-07T19:55:06.940Z,78.46
2018-02-07T19:57:34.493Z,78.56
2018-02-07T20:00:02.069Z,78.48
2018-02-07T20:02:29.619Z,78.60
2018-02-07T20:04:57.327Z,78.49
2018-02-07T20:07:24.901Z,78.65
2018-02-07T20:09:52.528Z,78.43
2018-02-07T20:12:20.176Z,78.13
2018-02-07T20:14:47.746Z,78.13
2018-02-07T20:17:15.379Z,78.08
2018-02-07T20:19:42.942Z,78.35
2018-02-07T20:22:10.688Z,78.51
2018-02-07T20:24:38.261Z,78.52
2018-02-07T20:27:05.850Z,78.53
2018-02-07T20:29:33.425Z,78.18
2018-02-07T20:32:01.067Z,78.21
2018-02-07T20:34:28.649Z,78.40
2018-02-07T20:36:56.208Z,78.43
2018-02-07T20:39:23.830Z,78.73
2018-02-07T20:41:51.429Z,78.12
2018-02-07T20:44:19.129Z,78.00
2018-02-07T20:46:46.753Z,77.74
2018-02-07T20:49:14.317Z,77.44
2018-02-07T20:51:41.886Z,76.93
2018-02-07T20:54:09.423Z,76.39
2018-02-07T20:56:37.035Z,76.32
2018-02-07T20:59:04.580Z,76.66
2018-02-07T21:01:32.149Z,76.78
2018-02-07T21:03:59.783Z,77.23
2018-02-07T21:06:27.343Z,77.42
2018-02-07T21:08:54.914Z,78.05
2018-02-07T21:11:22.551Z,78.53
2018-02-07T21:13:50.262Z,78.85
2018-02-07T21:16:17.820Z,79.40
2018-02-07T21:18:45.381Z,79.76
2018-02-07T21:21:12.950Z,80.10
2018-02-07T21:23:40.510Z,80.74
2018-02-07T21:26:08.139Z,80.68
2018-02-07T21:28:35.702Z,80.54
2018-02-07T21:31:03.363Z,80.47
2018-02-07T21:33:30.994Z,80.75
2018-02-07T21:35:58.554Z,80.50
2018-02-07T21:38:26.117Z,80.61
2018-02-07T21:40:53.738Z,80.80
2018-02-07T21:43:21.319Z,81.09
2018-02-07T21:45:48.877Z,81.28
2018-02-07T21:48:16.537Z,81.68
2018-02-07T21:50:44.110Z,81.60
2018-02-07T21:53:11.662Z,81.46
2018-02-07T21:55:39.237Z,80.63
2018-02-07T21:58:06.807Z,80.06
2018-02-07T22:00:34.378Z,79.58
2018-02-07T22:03:01.952Z,79.08
2018-02-07T22:05:29.673Z,78.33
2018-02-07T22:07:57.234Z,77.92
2018-02-07T22:10:24.794Z,77.26
2018-02-07T22:12:52.362Z,77.11
2018-02-07T22:15:19.923Z,76.91
2018-02-07T22:17:47.487Z,76.75
2018-02-07T22:20:15.046Z,76.73
2018-02-07T22:22:42.654Z,76.51
2018-02-07T22:25:10.211Z,76.29
2018-02-07T22:27:37.769Z,76.56
2018-02-07T22:30:05.431Z,76.41
2018-02-07T22:32:33.052Z,76.66
2018-02-07T22:35:00.696Z,77.05
2018-02-07T22:37:28.257Z,77.87
2018-02-07T22:39:55.879Z,78.59
2018-02-07T22:42:23.494Z,78.83
2018-02-07T22:44:51.134Z,78.95
2018-02-07T22:47:18.766Z,79.26
2018-02-07T22:49:46.329Z,79.49
2018-02-07T22:52:13.899Z,79.30
2018-02-07T22:54:41.461Z,79.15
2018-02-07T22:57:09.137Z,79.02
2018-02-07T22:59:36.702Z,78.97
2018-02-07T23:02:04.262Z,79.07
2018-02-07T23:04:31.880Z,79.33
2018-02-07T23:06:59.438Z,79.92
2018-02-07T23:09:27.058Z,80.35
2018-02-07T23:11:54.670Z,81.49
2018-02-07T23:14:22.343Z,82.22
2018-02-07T23:16:49.902Z,81.57
2018-02-07T23:19:17.470Z,81.54
2018-02-07T23:21:45.106Z,79.38
2018-02-07T23:24:12.726Z,78.91
2018-02-07T23:26:40.417Z,79.27
2018-02-07T23:29:07.973Z,79.37
2018-02-07T23:31:35.586Z,79.94
2018-02-07T23:34:03.145Z,80.90
2018-02-07T23:36:30.757Z,81.14
2018-02-07T23:38:58.380Z,81.01
2018-02-07T23:41:25.934Z,80.68
2018-02-07T23:43:53.562Z,80.52
2018-02-07T23:46:21.192Z,80.38
2018-02-07T23:48:48.880Z,80.85
2018-02-07T23:51:16.448Z,81.09
2018-02-07T23:53:44.103Z,81.36
2018-02-07T23:56:11.688Z,81.27
2018-02-07T23:58:39.249Z,80.88
